Home > Products > Valid Products > TAF

000
FTUS43 KILX 292300
TAFPIA
TAF
KPIA 292320Z 3000/3024 26003KT P6SM SKC
     FM301400 29008KT P6SM SCT050=



000
FTUS43 KILX 292300
TAFDEC
TAF
KDEC 292320Z 3000/3024 26003KT P6SM SKC
     FM301400 28008KT P6SM SCT050=



000
FTUS43 KILX 292300
TAFBMI
TAF
KBMI 292320Z 3000/3024 26005KT P6SM SKC
     FM301400 29010KT P6SM SCT040=



000
FTUS43 KILX 292300
TAFCMI
TAF
KCMI 292320Z 3000/3024 26003KT P6SM SKC
     FM301400 29008KT P6SM SCT050=



000
FTUS43 KILX 292300
TAFSPI
TAF
KSPI 292320Z 3000/3024 26003KT P6SM SKC
     FM301400 28008KT P6SM SCT050=



000
FTUS43 KILX 291700
TAFBMI
TAF
KBMI 291739Z 2918/3018 30012KT P6SM SCT035
     FM300000 26005KT P6SM SKC
     FM301400 28010KT P6SM SCT035=



000
FTUS43 KILX 291700
TAFCMI
TAF
KCMI 291739Z 2918/3018 30012KT P6SM SCT040
     FM300000 26003KT P6SM SKC
     FM301400 28008KT P6SM SCT040=



000
FTUS43 KILX 291700
TAFPIA
TAF
KPIA 291739Z 2918/3018 30010KT P6SM SCT040
     FM300000 26003KT P6SM SKC
     FM301400 28008KT P6SM SCT040=



000
FTUS43 KILX 291700
TAFDEC
TAF
KDEC 291739Z 2918/3018 32011KT P6SM SCT040
     FM300000 26003KT P6SM SKC
     FM301400 28008KT P6SM SCT040=



000
FTUS43 KILX 291700
TAFSPI
TAF
KSPI 291739Z 2918/3018 30010KT P6SM SCT040
     FM300000 26003KT P6SM SKC
     FM301400 28008KT P6SM SCT040=



000
FTUS43 KILX 291100
TAFSPI
TAF
KSPI 291123Z 2912/3012 26004KT P6SM SKC
     FM291500 31010KT P6SM SCT040
     FM300000 VRB04KT P6SM SKC=



000
FTUS43 KILX 291100
TAFBMI
TAF
KBMI 291123Z 2912/3012 28008KT P6SM SKC
     FM291500 30012KT P6SM SCT035
     FM300000 26005KT P6SM SKC=



000
FTUS43 KILX 291100
TAFDEC
TAF
KDEC 291123Z 2912/3012 30006KT P6SM SKC
     FM291500 31011KT P6SM SCT040
     FM300000 27004KT P6SM SKC=



000
FTUS43 KILX 291100
TAFPIA
TAF
KPIA 291123Z 2912/3012 VRB03KT P6SM SKC
     FM291500 30010KT P6SM SCT040
     FM300000 26004KT P6SM SKC=



000
FTUS43 KILX 291100
TAFCMI
TAF
KCMI 291123Z 2912/3012 28006KT P6SM SCT060
     FM291500 30012KT P6SM SCT040
     FM300000 25005KT P6SM SKC=



000
FTUS43 KILX 290500
TAFCMI
TAF
KCMI 290527Z 2906/3006 VRB03KT P6SM SKC
     FM291500 30012KT P6SM SCT040
     FM300000 25005KT P6SM SKC=



000
FTUS43 KILX 290500
TAFSPI
TAF
KSPI 290527Z 2906/3006 VRB03KT P6SM SKC
     FM291500 30010KT P6SM SCT040
     FM300000 27004KT P6SM SKC=



000
FTUS43 KILX 290500
TAFPIA
TAF
KPIA 290527Z 2906/3006 VRB03KT P6SM SKC
     FM291500 30010KT P6SM SCT040
     FM300000 26005KT P6SM SKC=



000
FTUS43 KILX 290500
TAFBMI
TAF
KBMI 290527Z 2906/3006 VRB03KT P6SM SKC
     FM291500 30012KT P6SM SCT035
     FM300000 26006KT P6SM SKC=



000
FTUS43 KILX 290500
TAFDEC
TAF
KDEC 290527Z 2906/3006 VRB03KT P6SM SKC
     FM291500 30010KT P6SM SCT040
     FM300000 27004KT P6SM SKC=



000
FTUS43 KILX 282300
TAFSPI
TAF
KSPI 282320Z 2900/2924 36008KT P6SM SCT060
     FM290200 VRB03KT P6SM SKC
     FM291500 30010KT P6SM SCT040=



000
FTUS43 KILX 282300
TAFBMI
TAF
KBMI 282320Z 2900/2924 36010KT P6SM SCT050
     FM290300 VRB03KT P6SM SKC
     FM291500 30012KT P6SM SCT035=



000
FTUS43 KILX 282300
TAFCMI
TAF
KCMI 282320Z 2900/2924 36008KT P6SM SCT050
     FM290200 VRB03KT P6SM SKC
     FM291500 30012KT P6SM SCT040=



000
FTUS43 KILX 282300
TAFPIA
TAF
KPIA 282320Z 2900/2924 36008KT P6SM SCT060
     FM290200 VRB03KT P6SM SKC
     FM291500 30010KT P6SM SCT040=



000
FTUS43 KILX 282300
TAFDEC
TAF
KDEC 282320Z 2900/2924 36008KT P6SM SCT050
     FM290200 VRB03KT P6SM SKC
     FM291500 30010KT P6SM SCT040=



000
FTUS43 KILX 282200 AAA
TAFSPI
TAF AMD
KSPI 282211Z 2822/2918 34012G18KT P6SM SCT040
     FM282300 35008KT P6SM FEW040
     FM290200 VRB03KT P6SM SKC
     FM291500 30008KT P6SM SCT040=



000
FTUS43 KILX 281700
TAFDEC
TAF
KDEC 281721Z 2818/2918 33012G18KT P6SM SCT040
     FM282200 35008KT P6SM FEW040
     FM290200 VRB03KT P6SM SKC
     FM291500 30008KT P6SM SCT040=



000
FTUS43 KILX 281700
TAFPIA
TAF
KPIA 281721Z 2818/2918 34012G18KT P6SM SCT040
     FM282200 36008KT P6SM FEW040
     FM290200 VRB03KT P6SM SKC
     FM291500 30008KT P6SM SCT040=



000
FTUS43 KILX 281700
TAFSPI
TAF
KSPI 281721Z 2818/2918 34012G18KT P6SM SCT040
     FM282200 35008KT P6SM FEW040
     FM290200 VRB03KT P6SM SKC
     FM291500 30008KT P6SM SCT040=



000
FTUS43 KILX 281700
TAFCMI
TAF
KCMI 281721Z 2818/2918 34012G18KT P6SM SCT035
      TEMPO 2818/2820 BKN030
     FM282200 35008KT P6SM FEW040
     FM290200 VRB03KT P6SM SKC
     FM291500 30008KT P6SM SCT040=



000
FTUS43 KILX 281700
TAFBMI
TAF
KBMI 281721Z 2818/2918 35014G20KT P6SM SCT035
     FM282200 36010KT P6SM FEW040
     FM290300 VRB03KT P6SM SKC
     FM291500 30010KT P6SM SCT035=



000
FTUS43 KILX 281100
TAFPIA
TAF
KPIA 281125Z 2812/2912 35006KT P6SM FEW030
     FM281530 35012G18KT P6SM SCT040
     FM290100 VRB04KT P6SM SKC=



000
FTUS43 KILX 281100
TAFSPI
TAF
KSPI 281125Z 2812/2912 34007KT P6SM SCT040
     FM281500 34014G20KT P6SM SCT040
     FM290100 VRB04KT P6SM SKC=



000
FTUS43 KILX 281100
TAFDEC
TAF
KDEC 281125Z 2812/2912 35010KT P6SM FEW025
     FM281500 34014G20KT P6SM SCT040
     FM290100 VRB04KT P6SM SKC=



000
FTUS43 KILX 281100
TAFBMI
TAF
KBMI 281125Z 2812/2912 35010KT P6SM SKC
     FM281530 35014G20KT P6SM SCT035
     FM290100 VRB06KT P6SM SKC=



000
FTUS43 KILX 281100
TAFCMI
TAF
KCMI 281125Z 2812/2912 34008KT P6SM FEW030
     FM281500 34014G20KT P6SM SCT040
     FM290100 VRB05KT P6SM SKC=



000
FTUS43 KILX 280500
TAFPIA
TAF
KPIA 280520Z 2806/2906 31008KT P6SM SCT040
     FM281500 35013G18KT P6SM SCT050
     FM290100 VRB04KT P6SM SKC=



000
FTUS43 KILX 280500
TAFDEC
TAF
KDEC 280520Z 2806/2906 30010KT P6SM SCT040
     FM281500 34013G18KT P6SM SCT050
     FM290100 VRB04KT P6SM SKC=



000
FTUS43 KILX 280500
TAFCMI
TAF
KCMI 280520Z 2806/2906 29009KT P6SM SCT040
     FM281500 34013G19KT P6SM SCT050
     FM290100 VRB05KT P6SM SKC=



000
FTUS43 KILX 280500
TAFSPI
TAF
KSPI 280520Z 2806/2906 30008KT P6SM SCT040
     FM281500 34013G18KT P6SM SCT050
     FM290100 VRB04KT P6SM SKC=



000
FTUS43 KILX 280500
TAFBMI
TAF
KBMI 280520Z 2806/2906 30010KT P6SM SCT040
     FM281500 35015G20KT P6SM SCT045
     FM290100 VRB06KT P6SM SKC=



000
FTUS43 KILX 272300
TAFBMI
TAF
KBMI 272320Z 2800/2824 30015G25KT P6SM SCT070
     FM280200 32010KT P6SM SKC
     FM281500 35015G20KT P6SM SCT035=



000
FTUS43 KILX 272300
TAFCMI
TAF
KCMI 272320Z 2800/2824 30015G25KT P6SM SCT070
     FM280200 32008KT P6SM SKC
     FM281500 34013G20KT P6SM SCT040=



000
FTUS43 KILX 272300
TAFPIA
TAF
KPIA 272320Z 2800/2824 30014G20KT P6SM SCT070
     FM280200 32008KT P6SM SKC
     FM281500 35013G19KT P6SM SCT040=



000
FTUS43 KILX 272300
TAFDEC
TAF
KDEC 272320Z 2800/2824 30014G25KT P6SM SCT070
     FM280200 32008KT P6SM SKC
     FM281500 34013G19KT P6SM SCT040=



000
FTUS43 KILX 272300
TAFSPI
TAF
KSPI 272320Z 2800/2824 30012G20KT P6SM SCT070
     FM280200 32008KT P6SM SKC
     FM281500 34013G18KT P6SM SCT045=



000
FTUS43 KILX 272000 AAA
TAFPIA
TAF AMD
KPIA 272024Z 2720/2818 29014G24KT P6SM SCT050
      TEMPO 2720/2722 BKN050
     FM272200 30012G18KT P6SM SCT060
     FM280000 31009KT P6SM SCT045
     FM280200 32006KT P6SM SKC
     FM281500 35009KT P6SM SCT040=



000
FTUS43 KILX 272000 AAA
TAFSPI
TAF AMD
KSPI 272022Z 2720/2818 29015G25KT P6SM SCT050
     FM272300 30012G18KT P6SM SCT060
     FM280100 30009KT P6SM FEW050
     FM280300 30007KT P6SM SKC
     FM281500 34010KT P6SM SCT045=



000
FTUS43 KILX 272000 AAA
TAFDEC
TAF AMD
KDEC 272022Z 2720/2818 30018G28KT P6SM SCT050
     FM272300 30014G22KT P6SM SCT060
     FM280100 31010KT P6SM FEW050
     FM280300 31008KT P6SM SKC
     FM281500 34011KT P6SM SCT040=



000
FTUS43 KILX 272000 AAA
TAFCMI
TAF AMD
KCMI 272021Z 2720/2818 28017G27KT P6SM SCT045
     FM272300 30015G22KT P6SM SCT050
     FM280100 31011KT P6SM SCT045
     FM280300 30008KT P6SM SKC
     FM281500 34012KT P6SM SCT040=



000
FTUS43 KILX 272000 AAA
TAFBMI
TAF AMD
KBMI 272020Z 2720/2818 29018G27KT P6SM SCT050
     FM272300 30015G22KT P6SM SCT060
     FM280100 30012KT P6SM SCT040
     FM280300 31010KT P6SM SKC
     FM281500 35013KT P6SM SCT035=



000
FTUS43 KILX 271700
TAFBMI
TAF
KBMI 271740Z 2718/2818 30016G25KT P6SM SCT025
      TEMPO 2718/2720 BKN025
     FM280100 30012KT P6SM SCT040
     FM280300 31010KT P6SM SKC
     FM281500 35013KT P6SM SCT035=



000
FTUS43 KILX 271700
TAFDEC
TAF
KDEC 271740Z 2718/2818 31014G23KT P6SM VCSH SCT030
      TEMPO 2718/2721 BKN030
     FM272100 30013G22KT P6SM SCT040
     FM280100 31010KT P6SM FEW045
     FM280300 31008KT P6SM SKC
     FM281500 34011KT P6SM SCT040=



000
FTUS43 KILX 271700
TAFSPI
TAF
KSPI 271740Z 2718/2818 29014G22KT P6SM SCT040
      TEMPO 2718/2720 BKN040
     FM280100 30009KT P6SM FEW040
     FM280300 30007KT P6SM SKC
     FM281500 34010KT P6SM SCT045=



000
FTUS43 KILX 271700
TAFPIA
TAF
KPIA 271740Z 2718/2818 29013G22KT P6SM SCT040
     FM280000 31009KT P6SM SCT040
     FM280200 32006KT P6SM SKC
     FM281500 35009KT P6SM SCT040=



000
FTUS43 KILX 271700
TAFCMI
TAF
KCMI 271740Z 2718/2818 31015G24KT P6SM VCSH SCT020
      TEMPO 2718/2721 BKN025
     FM272100 32014G22KT P6SM SCT035
     FM280100 31011KT P6SM SCT045
     FM280300 30008KT P6SM SKC
     FM281500 34012KT P6SM SCT040=



000
FTUS43 KILX 271600 AAD
TAFCMI
TAF AMD
KCMI 271611Z 2716/2812 31013G20KT P6SM SCT015 BKN035
      TEMPO 2716/2718 BKN025
     FM271800 32015G25KT P6SM SCT035
     FM280100 30008KT P6SM SKC=



000
FTUS43 KILX 271600 AAD
TAFDEC
TAF AMD
KDEC 271610Z 2716/2812 32012G20KT P6SM SCT025
      TEMPO 2716/2717 BKN025
     FM271800 30015G24KT P6SM SCT045
     FM280100 30010KT P6SM SKC=



000
FTUS43 KILX 271600 AAC
TAFSPI
TAF AMD
KSPI 271609Z 2716/2812 31011G18KT P6SM SCT025
     FM271700 30014G22KT P6SM SCT040
     FM280100 30008KT P6SM SKC=



000
FTUS43 KILX 271600 AAC
TAFSPI
TAF AMD
KSPI 271609Z 2716/2812 31011G18KT P6SM SCT025
     FM271700 30014G22KT P6SM SCT040
     FM280100 30008KT P6SM SKC=



000
FTUS43 KILX 271600 AAB
TAFPIA
TAF AMD
KPIA 271607Z 2716/2812 30012G20KT P6SM SCT025
      TEMPO 2716/2717 BKN025
     FM271700 30014G22KT P6SM SCT040
     FM280100 31008KT P6SM SKC=



000
FTUS43 KILX 271600 AAC
TAFBMI
TAF AMD
KBMI 271607Z 2716/2812 30015G22KT P6SM SCT025
      TEMPO 2716/2718 BKN025
     FM271800 30016G25KT P6SM SCT040
     FM280100 31010KT P6SM SKC=



000
FTUS43 KILX 271600 AAC
TAFBMI
TAF AMD
KBMI 271607Z 2716/2812 30015G22KT P6SM SCT025
      TEMPO 2716/2718 BKN025
     FM271800 30016G25KT P6SM SCT040
     FM280100 31010KT P6SM SKC=



000
FTUS43 KILX 271600 AAB
TAFPIA
TAF AMD
KPIA 271607Z 2716/2812 30012G20KT P6SM SCT025
      TEMPO 2716/2717 BKN025
     FM271700 30014G22KT P6SM SCT040
     FM280100 31008KT P6SM SKC=



000
FTUS43 KILX 271500 AAC
TAFCMI
TAF AMD
KCMI 271511Z 2715/2812 32010KT P6SM SCT008 BKN015
      TEMPO 2715/2716 SCT020
     FM271600 32012G20KT P6SM SCT025
     FM271800 33015G25KT P6SM SCT040
     FM280100 30008KT P6SM SKC=



000
FTUS43 KILX 271500 AAC
TAFDEC
TAF AMD
KDEC 271510Z 2715/2812 32010KT 6SM HZ BKN015
      TEMPO 2715/2716 5SM HZ SCT020
     FM271600 31012G20KT P6SM SCT025
     FM271800 30015G24KT P6SM SCT045
     FM280100 30010KT P6SM SKC=



000
FTUS43 KILX 271400 AAB
TAFCMI
TAF AMD
KCMI 271451Z 2715/2812 30009KT P6SM BKN008
      TEMPO 2715/2716 SCT015
     FM271600 30012KT P6SM SCT020
     FM271800 33015G25KT P6SM SCT040
     FM280100 30008KT P6SM SKC=



000
FTUS43 KILX 271400 AAB
TAFSPI
TAF AMD
KSPI 271407Z 2714/2812 32009KT 6SM BR BKN007
      TEMPO 2714/2715 5SM HZ SCT010
     FM271500 32012KT P6SM SCT015
     FM271700 30014G22KT P6SM SCT040
     FM280100 30008KT P6SM SKC=



000
FTUS43 KILX 271400 AAB
TAFBMI
TAF AMD
KBMI 271403Z 2714/2812 32010KT P6SM BKN006
      TEMPO 2714/2715 5SM HZ SCT010
     FM271500 30013G21KT P6SM SCT015
     FM271700 30016G25KT P6SM SCT040
     FM280100 31010KT P6SM SKC=



000
FTUS43 KILX 271400 AAB
TAFDEC
TAF AMD
KDEC 271402Z 2714/2812 31010KT 4SM BR BKN006
      TEMPO 2714/2716 6SM HZ SCT010
     FM271600 31012G20KT P6SM SCT015
     FM271800 30015G25KT P6SM SCT045
     FM280100 30010KT P6SM SKC=



000
FTUS43 KILX 271400 AAA
TAFCMI
TAF AMD
KCMI 271401Z 2714/2812 29007KT P6SM BKN010
      TEMPO 2715/2716 SCT015
     FM271600 30012KT P6SM SCT020
     FM271800 33015G25KT P6SM SCT040
     FM280100 30008KT P6SM SKC=



000
FTUS43 KILX 271300 AAA
TAFPIA
TAF AMD
KPIA 271347Z 2714/2812 32007KT 3SM BR SCT005
      TEMPO 2714/2715 6SM HZ
     FM271500 31010KT P6SM SCT015
     FM271700 30014G20KT P6SM SCT040
     FM280100 31008KT P6SM SKC=



000
FTUS43 KILX 271200 AAA
TAFDEC
TAF AMD
KDEC 271256Z 2713/2812 29005KT 4SM BR BKN008
     FM271400 30010KT P6SM FEW008
     FM271500 30015G25KT P6SM SCT045
     FM280100 30010KT P6SM SKC=



000
FTUS43 KILX 271200 AAA
TAFSPI
TAF AMD
KSPI 271252Z 2713/2812 33007KT 4SM BR BKN006
     FM271430 30014G20KT P6SM SCT040
     FM280100 30008KT P6SM SKC=



000
FTUS43 KILX 271200 AAA
TAFBMI
TAF AMD
KBMI 271251Z 2713/2812 31007KT 4SM BR BKN004 OVC015
     FM271400 30010KT P6SM SCT005
     FM271500 30016G25KT P6SM SCT040
     FM280100 31010KT P6SM SKC=



000
FTUS43 KILX 271100
TAFSPI
TAF
KSPI 271135Z 2712/2812 33005KT 1/4SM FG VV002
     FM271300 33007KT 1SM BR SCT005
     FM271400 30014G20KT P6SM SCT040
     FM280100 30008KT P6SM SKC=



000
FTUS43 KILX 271100
TAFBMI
TAF
KBMI 271135Z 2712/2812 29005KT 6SM BR SCT025 BKN045
     FM271400 30016G25KT P6SM SCT040
     FM280100 31010KT P6SM SKC=



000
FTUS43 KILX 271100
TAFPIA
TAF
KPIA 271135Z 2712/2812 33004KT 2SM BR VCSH BKN002 OVC015
     FM271300 32008KT 4SM BR SCT002 BKN015
     FM271400 30014G20KT P6SM SCT040
     FM280100 31008KT P6SM SKC=



000
FTUS43 KILX 271100
TAFDEC
TAF
KDEC 271135Z 2712/2812 VRB05KT 3SM BR SCT004
     FM271400 30015G25KT P6SM SCT045
     FM280100 30010KT P6SM SKC=



000
FTUS43 KILX 271100
TAFCMI
TAF
KCMI 271135Z 2712/2812 VRB03KT P6SM FEW010 BKN050
     FM271400 33015G25KT P6SM SCT040
     FM280100 30008KT P6SM SKC=



000
FTUS43 KILX 271100 AAB
TAFCMI
TAF AMD
KCMI 271117Z 2711/2806 VRB03KT P6SM BKN050
     FM271400 30013G21KT P6SM SCT040
     FM280200 30008KT P6SM SKC=



000
FTUS43 KILX 271100 AAC
TAFBMI
TAF AMD
KBMI 271112Z 2711/2806 29005KT 6SM BR VCSH SCT025 BKN045
      TEMPO 2711/2712 5SM -SHRA BKN025
     FM271400 30013G23KT P6SM SCT035
     FM280200 31008KT P6SM SKC=



000
FTUS43 KILX 270900 AAB
TAFBMI
TAF AMD
KBMI 270932Z 2710/2806 VRB05KT 3SM BR VCSH SCT004 BKN015
      TEMPO 2710/2712 1SM BR BKN004
     FM271400 30013G23KT P6SM SCT035
     FM280200 31008KT P6SM SKC=



000
FTUS43 KILX 270900 AAB
TAFSPI
TAF AMD
KSPI 270928Z 2709/2806 VRB03KT 1/4SM FG VV002
     FM271200 33006KT 3SM BR BKN004
     FM271400 30012G20KT P6SM SCT040
     FM280200 30008KT P6SM SKC=



000
FTUS43 KILX 270900 AAA
TAFPIA
TAF AMD
KPIA 270921Z 2709/2806 VRB04KT 1/2SM FG VCSH VV002 BKN012
      TEMPO 2709/2711 1/4SM FG
     FM271400 29011G16KT P6SM SCT035
     FM280200 31008KT P6SM SKC=



000
FTUS43 KILX 270700 AAA
TAFBMI
TAF AMD
KBMI 270734Z 2708/2806 VRB05KT P6SM VCSH SCT010 BKN060
     FM270900 VRB05KT 3SM BR SCT004 BKN060
     FM271400 30013G23KT P6SM SCT035
     FM280200 31008KT P6SM SKC=



000
FTUS43 KILX 270700 AAA
TAFDEC
TAF AMD
KDEC 270730Z 2708/2806 VRB04KT 4SM BR FEW005 BKN080
     FM270830 VRB04KT 4SM BR VCSH FEW005 BKN080
     FM271100 33006KT 3SM BR SCT004
     FM271400 30012G20KT P6SM SCT045
     FM280200 30008KT P6SM SKC=



000
FTUS43 KILX 270700 AAA
TAFSPI
TAF AMD
KSPI 270725Z 2707/2806 VRB03KT 4SM BR VCSH BKN070
     FM271100 33006KT 3SM BR SCT004
     FM271400 30012G20KT P6SM SCT040
     FM280200 30008KT P6SM SKC=



000
FTUS43 KILX 270700 AAA
TAFCMI
TAF AMD
KCMI 270716Z 2707/2806 VRB03KT 3SM -RA BR VCTS SCT030CB BKN070
      TEMPO 2707/2709 2SM TSRA BKN025CB
     FM271000 VRB03KT 4SM BR SCT010 BKN070
      TEMPO 2710/2713 2SM BR BKN008
     FM271400 30013G21KT P6SM SCT040
     FM280200 30008KT P6SM SKC=



000
FTUS43 KILX 270500
TAFSPI
TAF
KSPI 270537Z 2706/2806 VRB03KT 1SM BR OVC002
      TEMPO 2706/2710 1/2SM FG VV002
     FM271000 33006KT 3SM BR SCT004
     FM271400 30012G20KT P6SM SCT040
     FM280200 30008KT P6SM SKC=



000
FTUS43 KILX 270500
TAFBMI
TAF
KBMI 270537Z 2706/2806 VRB05KT 5SM BR SCT010
      TEMPO 2706/2709 2SM BR BKN008
     FM270900 VRB05KT 3SM BR SCT004 BKN010
     FM271400 30013G23KT P6SM SCT035
     FM280200 31008KT P6SM SKC=



000
FTUS43 KILX 270500
TAFCMI
TAF
KCMI 270537Z 2706/2806 VRB03KT 3SM BR SCT005 BKN120
      TEMPO 2708/2712 1SM BR BKN002
     FM271400 30013G21KT P6SM SCT040
     FM280200 30008KT P6SM SKC=



000
FTUS43 KILX 270500
TAFDEC
TAF
KDEC 270537Z 2706/2806 VRB04KT 2SM BR SCT005 BKN080
      TEMPO 2706/2710 1/2SM FG VV002
     FM271000 33006KT 3SM BR SCT004
     FM271400 30012G20KT P6SM SCT045
     FM280200 30008KT P6SM SKC=



000
FTUS43 KILX 270500
TAFPIA
TAF
KPIA 270537Z 2706/2806 VRB04KT 5SM BR SCT010 BKN100
      TEMPO 2706/2709 3SM BR BKN008
     FM270900 VRB04KT 3SM BR SCT005 BKN012
     FM271400 29011G16KT P6SM SCT035
     FM280200 31008KT P6SM SKC=



000
FTUS43 KILX 270300 AAB
TAFSPI
TAF AMD
KSPI 270342Z 2704/2724 VRB03KT 1/4SM FG VV002
      TEMPO 2710/2714 1SM BR SCT005
     FM271400 30012G20KT P6SM SCT040=



000
FTUS43 KILX 270300 AAB
TAFDEC
TAF AMD
KDEC 270317Z 2703/2724 VRB04KT 1/4SM FG VV005
      TEMPO 2710/2714 1SM BR SCT006
     FM271400 30012G20KT P6SM SCT045=



    US Dept of Commerce
    National Oceanic and Atmospheric Administration
    National Weather Service
    1325 East West Highway
    Silver Spring, MD 20910
    Page Author: NWS Internet Services Team
Disclaimer
Information Quality
Credits
Glossary
Privacy Policy
Freedom of Information Act (FOIA)
About Us
Career Opportunities